Time;durP1;ratioP1;P1;durP2;ratioP2;P2;SDS_P1;SDS_P2;PMS_P1;PMS_P2;Temp;Humidity;BMP_temperature;BMP_pressure;BME280_temperature;BME280_humidity;BME280_pressure;Samples;Min_cycle;Max_cycle;Signal;HPM_P1;HPM_P2
2022/07/02 00:00:27;;;;;;;1999.90;999.90;;;;;;;17.07;100.00;99967.94;5066180;28;20051;-53
2022/07/02 00:03:15;;;;;;;1999.90;999.90;;;;;;;16.97;100.00;99978.97;5064814;28;20044;-53
2022/07/02 00:06:02;;;;;;;1999.90;999.90;;;;;;;17.09;100.00;100005.75;5066536;28;20048;-53
2022/07/02 00:08:46;;;;;;;1999.90;999.90;;;;;;;17.09;100.00;100011.91;5067170;28;20138;-53
2022/07/02 00:11:31;;;;;;;1999.90;999.90;;;;;;;17.01;100.00;100020.22;5066520;28;20097;-53
2022/07/02 00:14:16;;;;;;;1999.90;999.90;;;;;;;17.02;100.00;100021.91;5066356;28;20056;-53
2022/07/02 00:17:00;;;;;;;1999.90;999.90;;;;;;;16.95;100.00;100028.44;5066995;28;20048;-53
2022/07/02 00:19:45;;;;;;;1999.90;999.90;;;;;;;16.93;100.00;100026.81;5064713;28;20044;-53
2022/07/02 00:22:32;;;;;;;1999.90;999.90;;;;;;;16.84;100.00;100045.78;5063981;28;20153;-53
2022/07/02 00:25:16;;;;;;;1999.90;999.90;;;;;;;16.81;100.00;100052.06;5066916;28;20503;-53
2022/07/02 00:28:01;;;;;;;1999.90;999.90;;;;;;;16.79;100.00;100048.63;5067035;28;20098;-53
2022/07/02 00:30:46;;;;;;;1999.90;999.90;;;;;;;16.85;100.00;100050.97;5066544;28;20047;-53
2022/07/02 00:33:34;;;;;;;1999.90;999.90;;;;;;;16.88;100.00;100058.78;5065722;28;20058;-53
2022/07/02 00:36:22;;;;;;;1999.90;999.90;;;;;;;16.95;100.00;100062.00;5062297;28;20106;-53
2022/07/02 00:39:07;;;;;;;1999.90;999.90;;;;;;;16.89;100.00;100067.56;5064190;28;20094;-53
2022/07/02 00:41:53;;;;;;;1999.90;999.90;;;;;;;16.82;100.00;100065.19;5064684;28;20048;-53
2022/07/02 00:44:39;;;;;;;1999.90;999.90;;;;;;;16.93;100.00;100071.78;5066042;28;20087;-53
2022/07/02 00:47:25;;;;;;;1999.90;999.90;;;;;;;16.74;100.00;100069.97;5066327;28;20052;-53
2022/07/02 00:50:09;;;;;;;1999.90;999.90;;;;;;;16.82;100.00;100072.28;5064694;28;20110;-53
2022/07/02 00:52:54;;;;;;;1999.90;999.90;;;;;;;16.55;100.00;100066.47;5064065;28;20056;-53
2022/07/02 00:55:38;;;;;;;1999.90;999.90;;;;;;;16.78;100.00;100095.38;5065870;28;20054;-53
2022/07/02 00:58:24;;;;;;;1999.90;999.90;;;;;;;16.85;100.00;100103.88;5067013;28;20055;-53
2022/07/02 01:01:09;;;;;;;1999.90;999.90;;;;;;;16.72;100.00;100097.41;5064774;28;20086;-52
2022/07/02 01:03:55;;;;;;;1999.90;999.90;;;;;;;16.58;100.00;100093.63;5066183;28;20118;-53
2022/07/02 01:06:41;;;;;;;1999.90;999.90;;;;;;;16.68;100.00;100088.75;5064084;28;20048;-53
2022/07/02 01:12:33;;;;;;;1999.90;999.90;;;;;;;16.74;100.00;100107.00;5062956;28;20041;-53
2022/07/02 01:15:18;;;;;;;1999.90;999.90;;;;;;;16.78;100.00;100115.69;5061856;28;20056;-53
2022/07/02 01:18:03;;;;;;;1999.90;999.90;;;;;;;16.73;100.00;100126.41;5065571;28;20182;-53
2022/07/02 01:20:47;;;;;;;1999.90;999.90;;;;;;;16.67;100.00;100128.47;5064412;28;20419;-53
2022/07/02 01:23:31;;;;;;;1999.90;999.90;;;;;;;16.65;100.00;100133.84;5062387;28;20048;-53
2022/07/02 01:26:16;;;;;;;1999.90;999.90;;;;;;;16.69;100.00;100134.56;5064888;28;20067;-53
2022/07/02 01:29:00;;;;;;;1999.90;999.90;;;;;;;16.78;100.00;100150.06;5062784;28;20430;-53
2022/07/02 01:31:45;;;;;;;1999.90;999.90;;;;;;;16.87;100.00;100151.44;5067242;28;20387;-53
2022/07/02 01:34:34;;;;;;;1999.90;999.90;;;;;;;16.63;100.00;100140.13;5062783;28;20130;-53
2022/07/02 01:37:21;;;;;;;1999.90;999.90;;;;;;;16.73;100.00;100160.81;5063581;28;20052;-53
2022/07/02 01:40:06;;;;;;;1999.90;999.90;;;;;;;16.63;100.00;100145.44;5063259;28;20077;-53
2022/07/02 01:42:51;;;;;;;1999.90;999.90;;;;;;;16.62;100.00;100154.28;5062398;28;20060;-53
2022/07/02 01:45:35;;;;;;;1999.90;999.90;;;;;;;16.57;100.00;100150.06;5062745;28;20066;-53
2022/07/02 01:48:20;;;;;;;1999.90;999.90;;;;;;;16.50;100.00;100142.47;5065473;28;20545;-52
2022/07/02 01:51:04;;;;;;;1999.90;999.90;;;;;;;16.42;100.00;100148.09;5061925;28;20056;-53
2022/07/02 01:53:49;;;;;;;1999.90;999.90;;;;;;;16.32;100.00;100145.00;5063577;28;20052;-53
2022/07/02 01:56:33;;;;;;;1999.90;999.90;;;;;;;16.49;100.00;100153.97;5063658;28;20045;-52
2022/07/02 01:59:18;;;;;;;1999.90;999.90;;;;;;;16.64;100.00;100141.84;5064532;28;20407;-52
2022/07/02 02:02:03;;;;;;;1999.90;999.90;;;;;;;16.57;100.00;100134.22;5060666;28;20475;-53
2022/07/02 02:04:47;;;;;;;1999.90;999.90;;;;;;;16.42;100.00;100150.75;5061265;28;20435;-53
2022/07/02 02:07:32;;;;;;;1999.90;999.90;;;;;;;16.40;100.00;100141.16;5062269;28;20053;-53
2022/07/02 02:10:16;;;;;;;1999.90;999.90;;;;;;;16.22;100.00;100154.25;5065790;28;20053;-53
2022/07/02 02:13:00;;;;;;;1999.90;999.90;;;;;;;16.22;100.00;100151.59;5065713;28;20041;-53
2022/07/02 02:15:45;;;;;;;1999.90;999.90;;;;;;;16.25;100.00;100163.81;5057709;28;20041;-53
2022/07/02 02:18:30;;;;;;;1999.90;999.90;;;;;;;16.32;100.00;100171.44;5060928;28;20048;-53
2022/07/02 02:21:15;;;;;;;1999.90;999.90;;;;;;;16.26;100.00;100181.41;5066723;28;20052;-53
2022/07/02 02:24:01;;;;;;;1999.90;999.90;;;;;;;16.39;100.00;100176.44;5062673;28;20077;-53
2022/07/02 02:26:45;;;;;;;1999.90;999.90;;;;;;;16.29;100.00;100178.63;5063585;28;20064;-52
2022/07/02 02:29:29;;;;;;;1999.90;999.90;;;;;;;16.28;100.00;100171.59;5065231;28;20119;-52
2022/07/02 02:32:14;;;;;;;1999.90;999.90;;;;;;;16.26;100.00;100190.19;5061309;28;20044;-52
2022/07/02 02:34:58;;;;;;;1999.90;999.90;;;;;;;16.21;100.00;100200.06;5064682;28;20052;-53
2022/07/02 02:37:43;;;;;;;1999.90;999.90;;;;;;;16.15;100.00;100183.63;5062443;28;20064;-53
2022/07/02 02:40:27;;;;;;;1999.90;999.90;;;;;;;16.26;100.00;100181.41;5063070;28;20052;-52
2022/07/02 02:43:12;;;;;;;1999.90;999.90;;;;;;;16.31;100.00;100190.88;5061949;28;20037;-52
2022/07/02 02:45:56;;;;;;;1999.90;999.90;;;;;;;16.08;100.00;100185.66;5062923;28;20560;-53
2022/07/02 02:48:40;;;;;;;1999.90;999.90;;;;;;;15.95;100.00;100173.88;5062165;28;20102;-53
2022/07/02 02:51:25;;;;;;;1999.90;999.90;;;;;;;16.15;100.00;100176.56;5060709;28;20462;-53
2022/07/02 02:54:10;;;;;;;1999.90;999.90;;;;;;;16.09;100.00;100174.19;5063584;28;20542;-54
2022/07/02 02:56:54;;;;;;;1999.90;999.90;;;;;;;16.03;100.00;100177.09;5063491;28;20083;-52
2022/07/02 02:59:38;;;;;;;1999.90;999.90;;;;;;;15.95;100.00;100179.16;5065801;28;20399;-53
2022/07/02 03:02:23;;;;;;;1999.90;999.90;;;;;;;16.01;100.00;100174.50;5061356;28;20174;-52
2022/07/02 03:05:07;;;;;;;1999.90;999.90;;;;;;;16.10;100.00;100175.91;5059793;28;20044;-53
2022/07/02 03:07:51;;;;;;;1999.90;999.90;;;;;;;16.01;100.00;100166.56;5061026;28;20049;-53
2022/07/02 03:10:36;;;;;;;1999.90;999.90;;;;;;;16.09;100.00;100174.19;5061773;28;20052;-53
2022/07/02 03:13:21;;;;;;;1999.90;999.90;;;;;;;16.22;100.00;100185.97;5060395;28;20098;-53
2022/07/02 03:16:07;;;;;;;1999.90;999.90;;;;;;;16.10;100.00;100187.31;5064189;28;20049;-52
2022/07/02 03:18:57;;;;;;;1999.90;999.90;;;;;;;16.11;100.00;100177.63;5061808;28;20468;-52
2022/07/02 03:21:41;;;;;;;1999.90;999.90;;;;;;;16.04;100.00;100182.28;5061547;28;20048;-53
2022/07/02 03:24:26;;;;;;;1999.90;999.90;;;;;;;16.22;100.00;100193.91;5060747;28;20535;-53
2022/07/02 03:27:10;;;;;;;1999.90;999.90;;;;;;;15.98;100.00;100203.69;5063515;28;20055;-52
2022/07/02 03:29:55;;;;;;;1999.90;999.90;;;;;;;16.18;100.00;100220.50;5063667;28;20245;-53
2022/07/02 03:32:39;;;;;;;1999.90;999.90;;;;;;;16.21;100.00;100207.16;5065567;28;20520;-53
2022/07/02 03:35:24;;;;;;;1999.90;999.90;;;;;;;16.20;100.00;100208.94;5060984;28;20118;-53
2022/07/02 03:38:08;;;;;;;1999.90;999.90;;;;;;;16.11;100.00;100218.09;5061957;28;20047;-53
2022/07/02 03:40:53;;;;;;;1999.90;999.90;;;;;;;16.18;100.00;100233.69;5064663;28;20048;-53
2022/07/02 03:43:37;;;;;;;1999.90;999.90;;;;;;;16.08;100.00;100236.72;5060364;28;20091;-52
2022/07/02 03:46:22;;;;;;;1999.90;999.90;;;;;;;15.97;100.00;100238.09;5062438;28;20110;-53
2022/07/02 03:49:06;;;;;;;1999.90;999.90;;;;;;;15.95;100.00;100232.00;5063700;28;20052;-53
2022/07/02 03:51:50;;;;;;;1999.90;999.90;;;;;;;16.18;100.00;100234.56;5064576;28;20055;-53
2022/07/02 03:54:35;;;;;;;1999.90;999.90;;;;;;;15.99;100.00;100238.88;5060980;28;20609;-52
2022/07/02 03:57:20;;;;;;;1999.90;999.90;;;;;;;15.93;100.00;100244.44;5060129;28;20093;-52
2022/07/02 04:00:06;;;;;;;1999.90;999.90;;;;;;;15.98;100.00;100245.94;5061289;28;20051;-52
2022/07/02 04:02:56;;;;;;;1999.90;999.90;;;;;;;15.82;100.00;100250.13;5062036;28;20048;-53
2022/07/02 04:05:41;;;;;;;1999.90;999.90;;;;;;;15.86;100.00;100259.66;5061388;28;20131;-52
2022/07/02 04:08:25;;;;;;;1999.90;999.90;;;;;;;15.93;100.00;100266.41;5063268;28;20086;-53
2022/07/02 04:11:10;;;;;;;1999.90;999.90;;;;;;;15.65;100.00;100254.25;5060177;28;20380;-53
2022/07/02 04:13:55;;;;;;;1999.90;999.90;;;;;;;15.70;100.00;100256.75;5064093;28;20059;-52
2022/07/02 04:16:39;;;;;;;1999.90;999.90;;;;;;;15.57;100.00;100266.06;5061914;28;20102;-53
2022/07/02 04:19:23;;;;;;;1999.90;999.90;;;;;;;15.62;100.00;100272.84;5064669;28;20075;-52
2022/07/02 04:22:08;;;;;;;1999.90;999.90;;;;;;;15.67;100.00;100274.50;5063871;28;20116;-53
2022/07/02 04:24:52;;;;;;;1999.90;999.90;;;;;;;15.68;100.00;100281.50;5069905;28;20919;-52
2022/07/02 04:27:37;;;;;;;1999.90;999.90;;;;;;;15.74;100.00;100268.91;5068618;28;20052;-52
2022/07/02 04:30:21;;;;;;;1999.90;999.90;;;;;;;15.58;100.00;100280.97;5067460;28;20043;-53
2022/07/02 04:33:06;;;;;;;1999.90;999.90;;;;;;;15.53;100.00;100285.53;5063508;28;20055;-52
2022/07/02 04:35:50;;;;;;;1999.90;999.90;;;;;;;15.71;100.00;100278.75;5065308;28;20513;-52
2022/07/02 04:38:35;;;;;;;1999.90;999.90;;;;;;;15.63;100.00;100279.00;5064584;28;21235;-52
2022/07/02 04:41:19;;;;;;;1999.90;999.90;;;;;;;15.42;100.00;100281.53;5063966;28;20064;-52
2022/07/02 04:44:04;;;;;;;1999.90;999.90;;;;;;;15.64;100.00;100297.44;5063201;28;20055;-52
2022/07/02 04:46:48;;;;;;;1999.90;999.90;;;;;;;15.82;100.00;100300.31;5062812;28;20051;-53
2022/07/02 04:49:33;;;;;;;1999.90;999.90;;;;;;;15.71;100.00;100305.16;5066041;28;20059;-52
2022/07/02 04:52:17;;;;;;;1999.90;999.90;;;;;;;15.73;100.00;100309.47;5065117;28;20045;-52
2022/07/02 04:55:01;;;;;;;1999.90;999.90;;;;;;;15.76;100.00;100306.69;5063285;28;20098;-53
2022/07/02 04:57:46;;;;;;;1999.90;999.90;;;;;;;15.71;100.00;100316.56;5063220;28;20068;-52
2022/07/02 05:00:31;;;;;;;1999.90;999.90;;;;;;;15.80;100.00;100316.22;5064357;28;20056;-53
2022/07/02 05:03:15;;;;;;;1999.90;999.90;;;;;;;15.68;100.00;100321.09;5065796;28;20044;-52
2022/07/02 05:05:59;;;;;;;1999.90;999.90;;;;;;;15.80;100.00;100323.28;5064967;28;20750;-53
2022/07/02 05:08:44;;;;;;;1999.90;999.90;;;;;;;15.78;100.00;100319.84;5066051;28;20047;-53
2022/07/02 05:11:29;;;;;;;1999.90;999.90;;;;;;;16.19;100.00;100323.50;5064685;28;20048;-53
2022/07/02 05:14:13;;;;;;;1999.90;999.90;;;;;;;16.18;100.00;100323.53;5063993;28;20045;-52
2022/07/02 05:16:57;;;;;;;1999.90;999.90;;;;;;;16.04;100.00;100319.69;5068778;28;20063;-53
2022/07/02 05:19:41;;;;;;;1999.90;999.90;;;;;;;15.98;100.00;100338.41;5065730;28;20102;-53
2022/07/02 05:22:26;;;;;;;1999.90;999.90;;;;;;;16.16;100.00;100334.19;5065683;28;20052;-52
2022/07/02 05:25:11;;;;;;;1999.90;999.90;;;;;;;16.04;100.00;100329.38;5066778;28;20072;-53
2022/07/02 05:27:55;;;;;;;1999.90;999.90;;;;;;;16.11;100.00;100325.56;5069176;28;20497;-53
2022/07/02 05:30:40;;;;;;;1999.90;999.90;;;;;;;16.07;100.00;100337.19;5069616;28;20162;-53
2022/07/02 05:33:24;;;;;;;1999.90;999.90;;;;;;;16.20;100.00;100345.50;5065956;28;20067;-52
2022/07/02 05:36:09;;;;;;;1999.90;999.90;;;;;;;16.20;100.00;100349.00;5064915;28;20074;-53
2022/07/02 05:38:53;;;;;;;1999.90;999.90;;;;;;;16.27;100.00;100346.97;5063159;28;20455;-53
2022/07/02 05:41:37;;;;;;;1999.90;999.90;;;;;;;16.39;100.00;100353.56;5066376;28;20040;-53
2022/07/02 05:44:22;;;;;;;1999.90;999.90;;;;;;;16.57;100.00;100355.44;5063948;28;20055;-54
2022/07/02 05:47:06;;;;;;;1999.90;999.90;;;;;;;16.32;100.00;100345.88;5062886;28;20147;-54
2022/07/02 05:49:51;;;;;;;1999.90;999.90;;;;;;;16.22;100.00;100354.25;5061598;28;20503;-53
2022/07/02 05:52:35;;;;;;;1999.90;999.90;;;;;;;16.45;100.00;100351.53;5063103;28;20032;-54
2022/07/02 05:55:20;;;;;;;1999.90;999.90;;;;;;;16.45;100.00;100351.53;5064187;28;20056;-53
2022/07/02 05:58:04;;;;;;;1999.90;999.90;;;;;;;16.33;100.00;100357.31;5060561;28;20044;-53
2022/07/02 06:00:49;;;;;;;1999.90;999.90;;;;;;;16.40;100.00;100356.13;5060201;28;20948;-53
2022/07/02 06:03:33;;;;;;;1999.90;999.90;;;;;;;16.70;100.00;100359.28;5062598;28;20075;-53
2022/07/02 06:09:21;;;;;;;1999.90;999.90;;;;;;;16.71;100.00;100368.13;5058077;28;20047;-53
2022/07/02 06:12:06;;;;;;;1999.90;999.90;;;;;;;16.71;100.00;100365.47;5060385;28;20087;-53
2022/07/02 06:14:50;;;;;;;1999.90;999.90;;;;;;;16.55;100.00;100375.81;5056770;28;20048;-54
2022/07/02 06:17:35;;;;;;;1999.90;999.90;;;;;;;16.80;100.00;100381.84;5058759;28;20067;-53
2022/07/02 06:20:19;;;;;;;1999.90;999.90;;;;;;;16.70;100.00;100382.22;5060177;28;20080;-54
2022/07/02 06:23:03;;;;;;;1999.90;999.90;;;;;;;16.99;100.00;100378.41;5058744;28;20483;-53
2022/07/02 06:25:49;;;;;;;1999.90;999.90;;;;;;;17.14;100.00;100391.00;5056456;28;20093;-53
2022/07/02 06:28:33;;;;;;;1999.90;999.90;;;;;;;17.38;100.00;100394.34;5059501;28;20051;-53
2022/07/02 06:31:17;;;;;;;1999.90;999.90;;;;;;;17.53;100.00;100388.38;5062312;28;21459;-53
2022/07/02 06:34:05;;;;;;;1999.90;999.90;;;;;;;17.64;100.00;100385.25;5061689;28;20059;-53
2022/07/02 06:36:49;;;;;;;1999.90;999.90;;;;;;;17.58;100.00;100398.78;5056801;28;20055;-54
2022/07/02 06:39:34;;;;;;;1999.90;999.90;;;;;;;17.75;100.00;100395.38;5061156;28;20052;-54
2022/07/02 06:42:26;;;;;;;1999.90;999.90;;;;;;;17.68;100.00;100397.44;5060189;28;20536;-54
2022/07/02 06:45:13;;;;;;;1999.90;999.90;;;;;;;17.62;100.00;100400.38;5059940;28;20048;-54
2022/07/02 06:47:58;;;;;;;1999.90;999.90;;;;;;;17.92;100.00;100408.72;5058649;28;20107;-54
2022/07/02 06:50:42;;;;;;;1999.90;999.90;;;;;;;17.86;100.00;100413.44;5062304;28;20045;-53
2022/07/02 06:53:27;;;;;;;1999.90;999.90;;;;;;;17.86;100.00;100406.38;5061895;28;20388;-53
2022/07/02 06:56:11;;;;;;;1999.90;999.90;;;;;;;18.43;100.00;100403.72;5058139;28;20056;-53
2022/07/02 06:58:56;;;;;;;1999.90;999.90;;;;;;;18.14;100.00;100413.06;5064673;28;20157;-54
2022/07/02 07:01:40;;;;;;;1999.90;999.90;;;;;;;18.19;100.00;100411.03;5060318;28;20494;-54
2022/07/02 07:04:27;;;;;;;1999.90;999.90;;;;;;;18.40;100.00;100422.44;5061793;28;20054;-54
2022/07/02 07:07:11;;;;;;;1999.90;999.90;;;;;;;18.32;100.00;100425.41;5061747;28;20063;-55
2022/07/02 07:09:55;;;;;;;1999.90;999.90;;;;;;;18.65;100.00;100422.09;5064794;28;20091;-53
2022/07/02 07:12:40;;;;;;;1999.90;999.90;;;;;;;18.51;100.00;100428.06;5066037;28;20055;-54
2022/07/02 07:15:24;;;;;;;1999.90;999.90;;;;;;;18.48;100.00;100427.34;5060969;28;20513;-54
2022/07/02 07:18:08;;;;;;;1999.90;999.90;;;;;;;18.99;100.00;100433.75;5056108;28;20051;-55
2022/07/02 07:20:53;;;;;;;1999.90;999.90;;;;;;;19.65;100.00;100430.38;5057870;28;20048;-54
2022/07/02 07:23:37;;;;;;;1999.90;999.90;;;;;;;19.90;100.00;100437.91;5057309;28;20577;-54
2022/07/02 07:26:21;;;;;;;1999.90;999.90;;;;;;;19.51;100.00;100445.22;5055544;28;20056;-53
2022/07/02 07:29:06;;;;;;;1999.90;999.90;;;;;;;19.50;100.00;100451.47;5057562;28;20048;-54
2022/07/02 07:31:51;;;;;;;1999.90;999.90;;;;;;;19.17;100.00;100445.22;5059129;28;20049;-53
2022/07/02 07:34:35;;;;;;;1999.90;999.90;;;;;;;19.10;100.00;100458.78;5060929;28;20048;-54
2022/07/02 07:37:20;;;;;;;1999.90;999.90;;;;;;;19.77;100.00;100456.31;5058021;28;20047;-54
2022/07/02 07:40:06;;;;;;;1999.90;999.90;;;;;;;19.58;100.00;100464.34;5060254;28;20074;-53
2022/07/02 07:42:50;;;;;;;1999.90;999.90;;;;;;;19.66;100.00;100470.16;5061611;28;20603;-53
2022/07/02 07:45:35;;;;;;;1999.90;999.90;;;;;;;19.17;100.00;100475.28;5058894;28;20044;-54
2022/07/02 07:48:19;;;;;;;1999.90;999.90;;;;;;;19.39;100.00;100475.06;5060835;28;20057;-54
2022/07/02 07:51:05;;;;;;;1999.90;999.90;;;;;;;19.26;100.00;100471.31;5062129;28;20475;-54
2022/07/02 07:53:50;;;;;;;1999.90;999.90;;;;;;;19.27;100.00;100486.28;5063064;28;20045;-54
2022/07/02 07:56:35;;;;;;;1999.90;999.90;;;;;;;18.92;100.00;100500.38;5066381;28;20135;-54
2022/07/02 07:59:20;;;;;;;1999.90;999.90;;;;;;;19.23;100.00;100498.00;5068002;28;20036;-54
2022/07/02 08:02:05;;;;;;;1999.90;999.90;;;;;;;19.74;100.00;100499.84;5055543;28;20048;-54
2022/07/02 08:04:50;;;;;;;1999.90;999.90;;;;;;;19.29;100.00;100497.72;5068134;28;20049;-54
2022/07/02 08:07:40;;;;;;;1999.90;999.90;;;;;;;19.24;100.00;100499.72;5071652;28;20063;-54
2022/07/02 08:10:26;;;;;;;1999.90;999.90;;;;;;;19.19;100.00;100507.94;5066690;28;20495;-55
2022/07/02 08:13:11;;;;;;;1999.90;999.90;;;;;;;19.29;100.00;100511.84;5065524;28;20037;-54
2022/07/02 08:15:56;;;;;;;1999.90;999.90;;;;;;;19.45;100.00;100516.38;5066926;28;20041;-53
2022/07/02 08:18:41;;;;;;;1999.90;999.90;;;;;;;19.25;100.00;100515.59;5064069;28;20044;-53
2022/07/02 08:21:25;;;;;;;1999.90;999.90;;;;;;;19.56;100.00;100522.00;5063653;28;20060;-54
2022/07/02 08:24:10;;;;;;;1999.90;999.90;;;;;;;19.03;100.00;100529.06;5065327;28;20098;-54
2022/07/02 08:26:54;;;;;;;1999.90;999.90;;;;;;;19.12;100.00;100525.94;5062038;28;20065;-54
2022/07/02 08:29:38;;;;;;;1999.90;999.90;;;;;;;19.17;100.00;100531.03;5064078;28;20056;-54
2022/07/02 08:32:22;;;;;;;1999.90;999.90;;;;;;;19.59;100.00;100525.34;5063987;28;20418;-54
2022/07/02 08:35:08;;;;;;;1999.90;999.90;;;;;;;19.67;100.00;100526.81;5062303;28;20044;-54
2022/07/02 08:37:53;;;;;;;1999.90;999.90;;;;;;;19.43;100.00;100526.22;5063383;28;20116;-54
2022/07/02 08:40:42;;;;;;;1999.90;999.90;;;;;;;19.54;100.00;100527.41;5062665;28;20106;-54
2022/07/02 08:43:27;;;;;;;1999.90;999.90;;;;;;;19.37;100.00;100522.09;5064875;28;20042;-54
2022/07/02 08:46:14;;;;;;;1999.90;999.90;;;;;;;19.06;100.00;100520.09;5064237;28;20072;-54
2022/07/02 08:49:00;;;;;;;1999.90;999.90;;;;;;;19.39;100.00;100520.19;5058782;28;20389;-54
2022/07/02 08:52:07;;;;;;;1999.90;999.90;;;;;;;19.48;100.00;100533.03;5063802;28;20075;-54
2022/07/02 08:54:53;;;;;;;1999.90;999.90;;;;;;;18.92;100.00;100534.03;5064754;28;20407;-54
2022/07/02 08:57:39;;;;;;;1999.90;999.90;;;;;;;19.38;100.00;100539.75;5064410;28;20056;-54
2022/07/02 09:00:25;;;;;;;1999.90;999.90;;;;;;;19.68;100.00;100539.16;5064302;28;20051;-54
2022/07/02 09:03:11;;;;;;;1999.90;999.90;;;;;;;19.82;100.00;100539.28;5061729;28;20052;-54
2022/07/02 09:05:55;;;;;;;1999.90;999.90;;;;;;;20.33;100.00;100540.13;5058407;28;20582;-55
2022/07/02 09:08:42;;;;;;;1999.90;999.90;;;;;;;20.19;100.00;100542.69;5056561;28;20090;-55
2022/07/02 09:11:28;;;;;;;1999.90;999.90;;;;;;;21.73;100.00;100535.78;5057981;28;20059;-54
2022/07/02 09:14:15;;;;;;;1999.90;999.90;;;;;;;21.90;100.00;100532.09;5057349;28;20068;-55
2022/07/02 09:17:01;;;;;;;1999.90;999.90;;;;;;;21.25;100.00;100529.69;5058750;28;20125;-55
2022/07/02 09:19:46;;;;;;;1999.90;999.90;;;;;;;20.93;100.00;100516.44;5058482;28;20075;-55
2022/07/02 09:22:36;;;;;;;1999.90;999.90;;;;;;;20.95;100.00;100533.16;5057841;28;20055;-55
2022/07/02 09:25:25;;;;;;;1999.90;999.90;;;;;;;21.14;100.00;100538.31;5054968;28;20051;-55
2022/07/02 09:28:13;;;;;;;1999.90;999.90;;;;;;;21.30;100.00;100535.63;5063718;28;20102;-55
2022/07/02 09:31:06;;;;;;;1999.90;999.90;;;;;;;20.33;100.00;100548.13;5065772;28;20055;-55
2022/07/02 09:33:50;;;;;;;1999.90;999.90;;;;;;;22.36;100.00;100538.16;5064103;28;20078;-56
2022/07/02 09:36:36;;;;;;;1999.90;999.90;;;;;;;22.70;100.00;100541.34;5063618;28;20060;-55
2022/07/02 09:39:30;;;;;;;1999.90;999.90;;;;;;;21.15;100.00;100539.16;5064564;28;20044;-56
2022/07/02 09:42:28;;;;;;;1999.90;999.90;;;;;;;21.64;100.00;100544.31;5064959;28;20049;-52
2022/07/02 09:45:13;;;;;;;1999.90;999.90;;;;;;;22.29;100.00;100538.63;5062807;28;20044;-56
2022/07/02 09:48:02;;;;;;;1999.90;999.90;;;;;;;21.48;100.00;100539.03;5067818;28;20052;-54
2022/07/02 09:50:47;;;;;;;1999.90;999.90;;;;;;;21.15;100.00;100536.50;5062082;28;20047;-56
2022/07/02 09:53:32;;;;;;;1999.90;999.90;;;;;;;20.99;100.00;100544.50;5064791;28;20052;-54
2022/07/02 09:56:17;;;;;;;1999.90;999.90;;;;;;;21.65;100.00;100544.25;5062952;28;20059;-54
2022/07/02 09:59:12;;;;;;;1999.90;999.90;;;;;;;23.41;100.00;100526.94;5063624;28;20044;-53
2022/07/02 10:01:56;;;;;;;1999.90;999.90;;;;;;;24.09;99.78;100533.03;5066215;28;20044;-55
2022/07/02 10:04:41;;;;;;;1999.90;999.90;;;;;;;23.82;98.79;100527.78;5061139;28;20475;-54
2022/07/02 10:07:25;;;;;;;1999.90;999.90;;;;;;;22.91;99.06;100524.91;5061801;28;20148;-54
2022/07/02 10:10:10;;;;;;;1999.90;999.90;;;;;;;22.56;100.00;100531.56;5059639;28;20052;-60
2022/07/02 10:12:55;;;;;;;1999.90;999.90;;;;;;;22.09;100.00;100535.34;5066941;28;20094;-56
2022/07/02 10:15:46;;;;;;;1999.90;999.90;;;;;;;22.58;100.00;100534.13;5058461;28;20103;-57
2022/07/02 10:18:30;;;;;;;1999.90;999.90;;;;;;;23.33;94.77;100524.78;5057286;28;20098;-56
2022/07/02 10:21:15;;;;;;;1999.90;999.90;;;;;;;23.15;98.48;100534.03;5062221;28;20049;-56
2022/07/02 10:24:01;;;;;;;1999.90;999.90;;;;;;;22.38;96.08;100533.56;5063857;28;20494;-56
2022/07/02 10:26:47;;;;;;;1999.90;999.90;;;;;;;21.99;99.30;100536.00;5061283;28;20053;-57
2022/07/02 10:29:31;;;;;;;1999.90;999.90;;;;;;;21.68;98.79;100521.88;5061855;28;20477;-56
2022/07/02 10:32:35;;;;;;;1999.90;999.90;;;;;;;23.90;91.01;100526.28;5058431;28;20056;-56
2022/07/02 10:35:21;;;;;;;1999.90;999.90;;;;;;;24.14;94.91;100518.34;5061740;28;21390;-56
2022/07/02 10:38:06;;;;;;;1999.90;999.90;;;;;;;23.27;90.79;100521.66;5061092;28;20052;-55
2022/07/02 10:40:50;;;;;;;1999.90;999.90;;;;;;;22.29;97.42;100528.81;5062541;28;20036;-55
2022/07/02 10:43:38;;;;;;;1999.90;999.90;;;;;;;21.74;97.42;100532.16;5060292;28;20039;-55
2022/07/02 10:46:26;;;;;;;1999.90;999.90;;;;;;;21.61;96.92;100525.84;5062069;28;20063;-55
2022/07/02 10:49:10;;;;;;;1999.90;999.90;;;;;;;22.80;98.75;100533.59;5061368;28;20059;-56
2022/07/02 10:51:57;;;;;;;1999.90;999.90;;;;;;;23.43;95.54;100526.81;5060688;28;20742;-56
2022/07/02 10:54:44;;;;;;;1999.90;999.90;;;;;;;23.71;88.33;100516.00;5063342;28;20380;-56
2022/07/02 10:57:28;;;;;;;1999.90;999.90;;;;;;;22.58;91.88;100531.44;5058883;28;20101;-55
2022/07/02 11:00:24;;;;;;;1999.90;999.90;;;;;;;21.82;90.89;100532.56;5057992;28;20068;-55
2022/07/02 11:03:18;;;;;;;1999.90;999.90;;;;;;;22.69;93.61;100528.97;5056816;28;20079;-56
2022/07/02 11:06:05;;;;;;;1999.90;999.90;;;;;;;22.39;92.78;100535.31;5054355;28;20052;-56
2022/07/02 11:09:08;;;;;;;1999.90;999.90;;;;;;;23.07;90.40;100515.84;5054909;28;20040;-58
2022/07/02 11:11:59;;;;;;;1999.90;999.90;;;;;;;24.65;83.67;100520.97;5056668;28;20102;-56
2022/07/02 11:14:56;;;;;;;1999.90;999.90;;;;;;;25.48;78.61;100516.66;5057526;28;20076;-56
2022/07/02 11:17:47;;;;;;;1999.90;999.90;;;;;;;23.44;86.68;100518.72;5057512;28;20063;-56
2022/07/02 11:20:34;;;;;;;1999.90;999.90;;;;;;;22.99;91.71;100522.63;5057750;28;20564;-55
2022/07/02 11:23:19;;;;;;;1999.90;999.90;;;;;;;22.85;93.43;100518.16;5058504;28;20738;-55
2022/07/02 11:26:04;;;;;;;1999.90;999.90;;;;;;;23.03;91.21;100516.13;5056072;28;20532;-55
2022/07/02 11:28:50;;;;;;;1999.90;999.90;;;;;;;23.07;89.11;100525.63;5058781;28;20035;-56
2022/07/02 11:31:36;;;;;;;1999.90;999.90;;;;;;;24.21;88.99;100519.66;5058184;28;20044;-55
2022/07/02 11:34:22;;;;;;;1999.90;999.90;;;;;;;25.41;80.86;100516.28;5058097;28;20117;-55
2022/07/02 11:37:07;;;;;;;1999.90;999.90;;;;;;;25.14;82.39;100520.06;5058473;28;20063;-55
2022/07/02 11:39:51;;;;;;;1999.90;999.90;;;;;;;25.27;79.06;100513.81;5059288;28;20036;-54
2022/07/02 11:42:37;;;;;;;1999.90;999.90;;;;;;;23.76;83.58;100505.00;5058664;28;20052;-54
2022/07/02 11:45:21;;;;;;;1999.90;999.90;;;;;;;23.45;84.88;100501.72;5057159;28;20048;-55
2022/07/02 11:48:06;;;;;;;1999.90;999.90;;;;;;;23.23;82.14;100509.44;5064692;28;20044;-56
2022/07/02 11:50:58;;;;;;;1999.90;999.90;;;;;;;22.60;87.26;100514.38;5062816;28;20706;-56
2022/07/02 11:53:42;;;;;;;1999.90;999.90;;;;;;;22.54;87.66;100508.59;5060800;28;20039;-56
2022/07/02 11:56:29;;;;;;;1999.90;999.90;;;;;;;22.68;86.87;100516.56;5062599;28;20135;-56
2022/07/02 11:59:16;;;;;;;1999.90;999.90;;;;;;;22.63;87.08;100522.22;5063858;28;20105;-56
2022/07/02 12:02:01;;;;;;;1999.90;999.90;;;;;;;23.12;87.23;100514.66;5063504;28;20049;-56
2022/07/02 12:04:47;;;;;;;1999.90;999.90;;;;;;;23.59;87.60;100516.81;5064633;28;20056;-55